Time;durP1;ratioP1;P1;durP2;ratioP2;P2;SDS_P1;SDS_P2;PMS_P1;PMS_P2;Temp;Humidity;BMP_temperature;BMP_pressure;BME280_temperature;BME280_humidity;BME280_pressure;Samples;Min_cycle;Max_cycle;Signal;HPM_P1;HPM_P2
2022/08/16 00:01:13;;;;;;;;;;;28.10;77.10;;;;;;5036621;28;19924;-60
2022/08/16 00:03:39;;;;;;;;;;;28.50;77.30;;;;;;5057995;28;19932;-61
2022/08/16 00:06:05;;;;;;;;;;;28.40;77.20;;;;;;5072745;28;19925;-61
2022/08/16 00:08:30;;;;;;;;;;;28.20;76.80;;;;;;5073591;28;20405;-60
2022/08/16 00:10:56;;;;;;;;;;;28.30;77.10;;;;;;5072088;28;20011;-60
2022/08/16 00:13:21;;;;;;;;;;;28.40;76.90;;;;;;5072896;28;19928;-62
2022/08/16 00:15:47;;;;;;;;;;;28.30;77.10;;;;;;5052796;28;20445;-60
2022/08/16 00:18:13;;;;;;;;;;;28.40;77.70;;;;;;5069531;28;19925;-61
2022/08/16 00:20:39;;;;;;;;;;;28.40;77.30;;;;;;5052203;28;19978;-61
2022/08/16 00:23:04;;;;;;;;;;;28.50;77.20;;;;;;5049385;28;20008;-60
2022/08/16 00:25:30;;;;;;;;;;;28.30;77.10;;;;;;5049639;28;19932;-60
2022/08/16 00:27:56;;;;;;;;;;;28.30;77.10;;;;;;5032339;28;19925;-60
2022/08/16 00:30:22;;;;;;;;;;;28.70;77.50;;;;;;5042428;28;19931;-60
2022/08/16 00:32:48;;;;;;;;;;;28.20;77.10;;;;;;5052201;28;20379;-60
2022/08/16 00:35:16;;;;;;;;;;;28.50;77.40;;;;;;5052316;28;19968;-60
2022/08/16 00:37:42;;;;;;;;;;;28.40;77.30;;;;;;5053856;28;20410;-60
2022/08/16 00:40:08;;;;;;;;;;;28.60;77.50;;;;;;5053407;28;19925;-60
2022/08/16 00:42:34;;;;;;;;;;;28.20;76.30;;;;;;5052524;28;20016;-60
2022/08/16 00:45:05;;;;;;;;;;;28.20;76.90;;;;;;5053332;28;20016;-60
2022/08/16 00:47:31;;;;;;;;;;;28.20;77.20;;;;;;5069231;28;19925;-60
2022/08/16 00:49:56;;;;;;;;;;;28.40;77.10;;;;;;5052222;28;20425;-60
2022/08/16 00:52:22;;;;;;;;;;;28.20;77.00;;;;;;5052292;28;19933;-60
2022/08/16 00:54:48;;;;;;;;;;;28.30;77.00;;;;;;5039272;28;19932;-60
2022/08/16 00:57:13;;;;;;;;;;;28.30;77.20;;;;;;5052801;28;19932;-60
2022/08/16 00:59:39;;;;;;;;;;;28.20;77.00;;;;;;5051987;28;20365;-60
2022/08/16 01:02:07;;;;;;;;;;;28.50;77.20;;;;;;5050881;28;19924;-61
2022/08/16 01:04:33;;;;;;;;;;;28.40;77.30;;;;;;5052428;28;19924;-60
2022/08/16 01:06:59;;;;;;;;;;;28.10;77.00;;;;;;5053561;28;19925;-60
2022/08/16 01:09:24;;;;;;;;;;;28.40;77.00;;;;;;5044358;28;20016;-60
2022/08/16 01:11:50;;;;;;;;;;;28.30;77.00;;;;;;5049023;28;19921;-60
2022/08/16 01:14:17;;;;;;;;;;;28.40;77.10;;;;;;5050363;28;20263;-60
2022/08/16 01:16:43;;;;;;;;;;;28.30;77.20;;;;;;5065233;28;19977;-60
2022/08/16 01:19:29;;;;;;;;;;;28.10;76.80;;;;;;5073453;28;19924;-60
2022/08/16 01:22:13;;;;;;;;;;;28.40;77.20;;;;;;5070764;28;19925;-60
2022/08/16 01:24:41;;;;;;;;;;;28.30;75.80;;;;;;5075672;28;19975;-60
2022/08/16 01:27:11;;;;;;;;;;;28.20;77.10;;;;;;5075723;28;19924;-60
2022/08/16 01:29:39;;;;;;;;;;;28.40;75.80;;;;;;5075824;28;19924;-60
2022/08/16 01:32:04;;;;;;;;;;;28.50;77.30;;;;;;5075743;28;19930;-66
2022/08/16 01:34:30;;;;;;;;;;;28.40;76.90;;;;;;5074926;28;20332;-60
2022/08/16 01:37:06;;;;;;;;;;;28.30;76.90;;;;;;5075512;28;19925;-60
2022/08/16 01:39:32;;;;;;;;;;;28.30;77.30;;;;;;5075963;28;19924;-60
2022/08/16 01:41:58;;;;;;;;;;;28.50;77.20;;;;;;5076818;28;20429;-60
2022/08/16 01:44:23;;;;;;;;;;;28.10;77.00;;;;;;5076251;28;19924;-60
2022/08/16 01:46:49;;;;;;;;;;;28.30;77.10;;;;;;5075186;28;19924;-60
2022/08/16 01:49:26;;;;;;;;;;;28.50;77.10;;;;;;5075775;28;19925;-60
2022/08/16 01:51:58;;;;;;;;;;;28.30;77.20;;;;;;5054169;28;19929;-60
2022/08/16 01:54:24;;;;;;;;;;;28.20;75.70;;;;;;5058660;28;19989;-60
2022/08/16 01:56:50;;;;;;;;;;;28.30;77.10;;;;;;5075126;28;19979;-60
2022/08/16 01:59:15;;;;;;;;;;;28.40;77.10;;;;;;5059390;28;20422;-60
2022/08/16 02:01:41;;;;;;;;;;;28.10;76.90;;;;;;5076419;28;19920;-60
2022/08/16 02:04:06;;;;;;;;;;;28.40;77.00;;;;;;5076041;28;20275;-60
2022/08/16 02:06:33;;;;;;;;;;;28.60;77.30;;;;;;5074801;28;20020;-61
2022/08/16 02:08:59;;;;;;;;;;;28.10;76.90;;;;;;5076297;28;20451;-60
2022/08/16 02:11:24;;;;;;;;;;;28.50;77.10;;;;;;5058057;28;20076;-60
2022/08/16 02:13:50;;;;;;;;;;;28.30;77.00;;;;;;5076160;28;20015;-60
2022/08/16 02:16:16;;;;;;;;;;;28.40;77.20;;;;;;5075559;28;19978;-60
2022/08/16 02:18:41;;;;;;;;;;;28.40;76.90;;;;;;5074962;28;19928;-62
2022/08/16 02:21:07;;;;;;;;;;;28.20;76.90;;;;;;5075796;28;19928;-60
2022/08/16 02:23:33;;;;;;;;;;;28.30;76.80;;;;;;5074493;28;19964;-60
2022/08/16 02:25:58;;;;;;;;;;;28.00;76.90;;;;;;5074826;28;19928;-60
2022/08/16 02:28:25;;;;;;;;;;;28.30;76.90;;;;;;5074328;28;20301;-60
2022/08/16 02:30:54;;;;;;;;;;;28.30;77.10;;;;;;5075867;28;19925;-61
2022/08/16 02:33:20;;;;;;;;;;;28.30;75.70;;;;;;5075510;28;20432;-60
2022/08/16 02:35:46;;;;;;;;;;;28.40;77.30;;;;;;5075211;28;19924;-60
2022/08/16 02:38:12;;;;;;;;;;;28.20;76.90;;;;;;5074033;28;20899;-61
2022/08/16 02:40:38;;;;;;;;;;;28.50;76.90;;;;;;5074930;28;19932;-60
2022/08/16 02:43:03;;;;;;;;;;;28.00;76.90;;;;;;5074636;28;20459;-60
2022/08/16 02:45:30;;;;;;;;;;;28.40;77.00;;;;;;5075372;28;19975;-60
2022/08/16 02:47:57;;;;;;;;;;;28.20;77.10;;;;;;5076097;28;19925;-60
2022/08/16 02:50:23;;;;;;;;;;;28.20;76.90;;;;;;5074109;28;20294;-60
2022/08/16 02:52:48;;;;;;;;;;;28.30;76.80;;;;;;5075441;28;19924;-60
2022/08/16 02:55:14;;;;;;;;;;;28.30;76.80;;;;;;5075161;28;19931;-60
2022/08/16 02:57:40;;;;;;;;;;;28.40;76.80;;;;;;5074405;28;19925;-60
2022/08/16 03:00:08;;;;;;;;;;;28.20;76.90;;;;;;5073894;28;20320;-60
2022/08/16 03:02:34;;;;;;;;;;;28.00;76.60;;;;;;5074994;28;19930;-60
2022/08/16 03:05:00;;;;;;;;;;;28.10;77.10;;;;;;5074894;28;19925;-60
2022/08/16 03:07:25;;;;;;;;;;;28.00;76.90;;;;;;5075096;28;20011;-60
2022/08/16 03:09:51;;;;;;;;;;;28.20;76.80;;;;;;5073408;28;19939;-63
2022/08/16 03:12:18;;;;;;;;;;;28.40;77.20;;;;;;5074771;28;19924;-61
2022/08/16 03:14:43;;;;;;;;;;;28.10;76.80;;;;;;5074471;28;20393;-60
2022/08/16 03:17:09;;;;;;;;;;;28.20;77.00;;;;;;5074584;28;19978;-61
2022/08/16 03:19:35;;;;;;;;;;;28.20;76.80;;;;;;5074595;28;20300;-60
2022/08/16 03:22:01;;;;;;;;;;;28.50;77.10;;;;;;5073692;28;19924;-61
2022/08/16 03:24:27;;;;;;;;;;;28.10;76.90;;;;;;5074748;28;20423;-60
2022/08/16 03:26:52;;;;;;;;;;;28.00;76.90;;;;;;5073878;28;19936;-60
2022/08/16 03:29:18;;;;;;;;;;;28.00;76.70;;;;;;5054433;28;19925;-60
2022/08/16 03:31:44;;;;;;;;;;;28.10;77.00;;;;;;5060852;28;20015;-59
2022/08/16 03:34:09;;;;;;;;;;;28.20;77.10;;;;;;5074622;28;20233;-60
2022/08/16 03:36:35;;;;;;;;;;;28.80;77.40;;;;;;5074246;28;19978;-60
2022/08/16 03:39:00;;;;;;;;;;;28.00;76.90;;;;;;5074542;28;19970;-60
2022/08/16 03:41:26;;;;;;;;;;;28.30;77.20;;;;;;5074224;28;20310;-60
2022/08/16 03:43:53;;;;;;;;;;;28.00;76.70;;;;;;5072702;28;19928;-60
2022/08/16 03:46:20;;;;;;;;;;;27.80;76.90;;;;;;5073395;28;19932;-60
2022/08/16 03:48:46;;;;;;;;;;;28.20;77.30;;;;;;5074266;28;19925;-60
2022/08/16 03:51:12;;;;;;;;;;;28.00;77.00;;;;;;5073364;28;19936;-60
2022/08/16 03:53:38;;;;;;;;;;;28.30;77.10;;;;;;5073376;28;19931;-60
2022/08/16 03:56:04;;;;;;;;;;;28.10;77.10;;;;;;5074358;28;20014;-60
2022/08/16 03:58:30;;;;;;;;;;;28.20;77.20;;;;;;5073443;28;19931;-60
2022/08/16 04:00:56;;;;;;;;;;;28.00;77.00;;;;;;5074206;28;19925;-60
2022/08/16 04:03:21;;;;;;;;;;;28.10;76.70;;;;;;5072233;28;19932;-60
2022/08/16 04:05:47;;;;;;;;;;;28.20;77.10;;;;;;5074030;28;19924;-60
2022/08/16 04:08:13;;;;;;;;;;;28.10;76.90;;;;;;5073840;28;20450;-60
2022/08/16 04:10:39;;;;;;;;;;;28.00;76.90;;;;;;5072659;28;19928;-60
2022/08/16 04:13:05;;;;;;;;;;;28.10;77.10;;;;;;5073760;28;19925;-60
2022/08/16 04:15:30;;;;;;;;;;;28.10;76.90;;;;;;5072158;28;19929;-61
2022/08/16 04:17:56;;;;;;;;;;;27.80;76.70;;;;;;5074058;28;19967;-60
2022/08/16 04:20:22;;;;;;;;;;;28.00;76.80;;;;;;5074057;28;19981;-60
2022/08/16 04:22:48;;;;;;;;;;;28.10;76.70;;;;;;5052309;28;20356;-60
2022/08/16 04:25:13;;;;;;;;;;;28.00;76.90;;;;;;5061336;28;19925;-60
2022/08/16 04:27:39;;;;;;;;;;;28.20;77.10;;;;;;5073169;28;20049;-60
2022/08/16 04:30:06;;;;;;;;;;;27.90;76.50;;;;;;5073290;28;19924;-61
2022/08/16 04:32:32;;;;;;;;;;;28.10;76.60;;;;;;5073619;28;19979;-60
2022/08/16 04:34:57;;;;;;;;;;;28.20;77.00;;;;;;5072915;28;19920;-61
2022/08/16 04:37:23;;;;;;;;;;;27.80;76.90;;;;;;5072971;28;20374;-61
2022/08/16 04:39:49;;;;;;;;;;;27.80;76.60;;;;;;5073223;28;19985;-59
2022/08/16 04:42:14;;;;;;;;;;;28.30;77.10;;;;;;5073468;28;19924;-60
2022/08/16 04:44:40;;;;;;;;;;;28.10;77.10;;;;;;5073468;28;19950;-60
2022/08/16 04:47:06;;;;;;;;;;;28.10;76.90;;;;;;5072100;28;19995;-60
2022/08/16 04:49:31;;;;;;;;;;;28.10;76.80;;;;;;5073416;28;19928;-60
2022/08/16 04:51:57;;;;;;;;;;;28.00;76.80;;;;;;5073721;28;19968;-60
2022/08/16 04:54:23;;;;;;;;;;;28.10;76.90;;;;;;5072516;28;20289;-59
2022/08/16 04:56:48;;;;;;;;;;;28.20;77.00;;;;;;5052654;28;20370;-61
2022/08/16 04:59:14;;;;;;;;;;;28.00;76.80;;;;;;5073921;28;20018;-71
2022/08/16 05:01:39;;;;;;;;;;;27.90;76.90;;;;;;5077445;28;20327;-60
2022/08/16 05:04:05;;;;;;;;;;;28.10;76.70;;;;;;5077436;28;19925;-60
2022/08/16 05:06:31;;;;;;;;;;;28.40;77.10;;;;;;5077134;28;19986;-60
2022/08/16 05:08:56;;;;;;;;;;;28.00;76.60;;;;;;5074670;28;20054;-60
2022/08/16 05:11:23;;;;;;;;;;;28.00;76.70;;;;;;5076751;28;19935;-61
2022/08/16 05:13:49;;;;;;;;;;;28.10;76.80;;;;;;5077111;28;20405;-60
2022/08/16 05:16:16;;;;;;;;;;;28.30;76.90;;;;;;5076970;28;19924;-60
2022/08/16 05:18:42;;;;;;;;;;;27.90;76.80;;;;;;5074965;28;19928;-60
2022/08/16 05:21:07;;;;;;;;;;;28.10;76.80;;;;;;5076010;28;19931;-60
2022/08/16 05:23:33;;;;;;;;;;;28.00;76.50;;;;;;5076718;28;19925;-62
2022/08/16 05:25:59;;;;;;;;;;;28.00;76.80;;;;;;5058902;28;19925;-61
2022/08/16 05:28:25;;;;;;;;;;;28.00;76.70;;;;;;5074987;28;19977;-66
2022/08/16 05:30:51;;;;;;;;;;;28.20;77.10;;;;;;5076833;28;20301;-61
2022/08/16 05:33:17;;;;;;;;;;;28.20;76.70;;;;;;5076633;28;19924;-60
2022/08/16 05:35:43;;;;;;;;;;;28.10;76.60;;;;;;5076632;28;19930;-59
2022/08/16 05:38:08;;;;;;;;;;;28.30;76.80;;;;;;5076458;28;19931;-62
2022/08/16 05:40:34;;;;;;;;;;;28.10;76.30;;;;;;5075208;28;19924;-60
2022/08/16 05:43:00;;;;;;;;;;;28.30;76.50;;;;;;5076791;28;20366;-61
2022/08/16 05:45:25;;;;;;;;;;;28.30;76.10;;;;;;5076645;28;19969;-60
2022/08/16 05:47:51;;;;;;;;;;;28.10;76.30;;;;;;5058690;28;19932;-61
2022/08/16 05:50:16;;;;;;;;;;;28.30;76.10;;;;;;5074434;28;19928;-60
2022/08/16 05:52:42;;;;;;;;;;;28.30;76.30;;;;;;5076554;28;20286;-60
2022/08/16 05:55:08;;;;;;;;;;;28.10;75.90;;;;;;5075390;28;20007;-72
2022/08/16 05:57:33;;;;;;;;;;;28.50;76.10;;;;;;5074984;28;19928;-60
2022/08/16 05:59:59;;;;;;;;;;;28.80;76.10;;;;;;5075908;28;19932;-60
2022/08/16 06:02:28;;;;;;;;;;;28.60;76.00;;;;;;5074108;28;19920;-60
2022/08/16 06:04:54;;;;;;;;;;;28.40;76.00;;;;;;5076167;28;19924;-60
2022/08/16 06:07:20;;;;;;;;;;;28.30;75.90;;;;;;5074984;28;20015;-60
2022/08/16 06:09:46;;;;;;;;;;;28.20;75.90;;;;;;5074591;28;19928;-61
2022/08/16 06:12:11;;;;;;;;;;;28.60;76.20;;;;;;5075992;28;20283;-61
2022/08/16 06:14:37;;;;;;;;;;;28.70;76.00;;;;;;5075389;28;19924;-60
2022/08/16 06:17:03;;;;;;;;;;;28.70;76.00;;;;;;5074107;28;19970;-60
2022/08/16 06:19:28;;;;;;;;;;;28.50;75.50;;;;;;5075456;28;19924;-60
2022/08/16 06:21:54;;;;;;;;;;;28.90;75.80;;;;;;5075623;28;19925;-60
2022/08/16 06:24:20;;;;;;;;;;;28.80;75.70;;;;;;5075709;28;19925;-60
2022/08/16 06:26:45;;;;;;;;;;;28.80;75.60;;;;;;5075848;28;19924;-60
2022/08/16 06:29:11;;;;;;;;;;;29.00;75.20;;;;;;5074417;28;20045;-64
2022/08/16 06:31:36;;;;;;;;;;;29.10;75.40;;;;;;5075591;28;19924;-62
2022/08/16 06:34:02;;;;;;;;;;;29.20;75.20;;;;;;5076124;28;20017;-64
2022/08/16 06:36:28;;;;;;;;;;;29.10;75.00;;;;;;5074814;28;19924;-64
2022/08/16 06:38:53;;;;;;;;;;;29.60;75.00;;;;;;5072607;28;20503;-65
2022/08/16 06:41:19;;;;;;;;;;;29.30;74.80;;;;;;5075447;28;19931;-65
2022/08/16 06:43:45;;;;;;;;;;;29.60;74.80;;;;;;5075597;28;19929;-64
2022/08/16 06:46:24;;;;;;;;;;;29.30;74.70;;;;;;5074312;28;20033;-64
2022/08/16 06:48:50;;;;;;;;;;;29.30;73.50;;;;;;5075188;28;19925;-64
2022/08/16 06:51:15;;;;;;;;;;;29.50;74.80;;;;;;5075450;28;19948;-60
2022/08/16 06:53:41;;;;;;;;;;;29.50;74.60;;;;;;5075447;28;20394;-64
2022/08/16 06:56:07;;;;;;;;;;;29.60;74.80;;;;;;5075216;28;20456;-62
2022/08/16 06:58:32;;;;;;;;;;;29.80;74.60;;;;;;5073974;28;19975;-63
2022/08/16 07:00:59;;;;;;;;;;;29.50;74.60;;;;;;5074215;28;20423;-65
2022/08/16 07:03:25;;;;;;;;;;;29.60;74.50;;;;;;5074192;28;20342;-64
2022/08/16 07:05:51;;;;;;;;;;;29.80;74.70;;;;;;5073068;28;20025;-65
2022/08/16 07:08:17;;;;;;;;;;;29.80;74.50;;;;;;5075134;28;19925;-63
2022/08/16 07:10:43;;;;;;;;;;;29.70;74.10;;;;;;5075117;28;20335;-65
2022/08/16 07:13:08;;;;;;;;;;;29.80;74.00;;;;;;5074598;28;20403;-60
2022/08/16 07:15:34;;;;;;;;;;;29.90;73.80;;;;;;5073017;28;19968;-62
2022/08/16 07:18:00;;;;;;;;;;;30.20;73.90;;;;;;5073960;28;19924;-60
2022/08/16 07:20:26;;;;;;;;;;;30.10;73.70;;;;;;5072782;28;19970;-60
2022/08/16 07:22:54;;;;;;;;;;;30.10;73.60;;;;;;5055652;28;19928;-62
2022/08/16 07:25:20;;;;;;;;;;;30.40;73.80;;;;;;5072720;28;19970;-70
2022/08/16 07:27:46;;;;;;;;;;;30.30;73.50;;;;;;5069316;28;19967;-66
2022/08/16 07:30:12;;;;;;;;;;;30.40;73.50;;;;;;5072207;28;20414;-67
2022/08/16 07:32:38;;;;;;;;;;;30.50;73.10;;;;;;5073885;28;19939;-66
2022/08/16 07:35:04;;;;;;;;;;;30.50;73.30;;;;;;5071878;28;19932;-66
2022/08/16 07:37:30;;;;;;;;;;;30.20;73.00;;;;;;5073493;28;19971;-67
2022/08/16 07:39:55;;;;;;;;;;;30.40;73.10;;;;;;5074535;28;19925;-66
2022/08/16 07:42:21;;;;;;;;;;;30.60;73.00;;;;;;5074206;28;19928;-66
2022/08/16 07:44:47;;;;;;;;;;;30.40;73.10;;;;;;5073789;28;19967;-67
2022/08/16 07:47:13;;;;;;;;;;;30.60;72.50;;;;;;5072572;28;20300;-61
2022/08/16 07:49:39;;;;;;;;;;;30.10;72.50;;;;;;5073964;28;20019;-60
2022/08/16 07:52:04;;;;;;;;;;;30.50;72.60;;;;;;5074243;28;19920;-60
2022/08/16 07:54:30;;;;;;;;;;;30.70;72.90;;;;;;5052193;28;19924;-66
2022/08/16 07:56:56;;;;;;;;;;;30.50;72.10;;;;;;5068801;28;20371;-61
2022/08/16 07:59:23;;;;;;;;;;;30.80;72.80;;;;;;5072336;28;19984;-68
2022/08/16 08:01:50;;;;;;;;;;;30.50;72.60;;;;;;5072440;28;20370;-60
2022/08/16 08:04:16;;;;;;;;;;;30.60;72.60;;;;;;5072836;28;19986;-64
2022/08/16 08:06:42;;;;;;;;;;;30.70;72.50;;;;;;5070650;28;20364;-61
2022/08/16 08:09:08;;;;;;;;;;;30.60;72.50;;;;;;5071246;28;19924;-63
2022/08/16 08:11:33;;;;;;;;;;;30.70;72.40;;;;;;5072785;28;20019;-64
2022/08/16 08:13:59;;;;;;;;;;;30.60;72.50;;;;;;5073194;28;19925;-64
2022/08/16 08:16:25;;;;;;;;;;;30.70;72.30;;;;;;5073523;28;19990;-63
2022/08/16 08:18:53;;;;;;;;;;;30.60;72.60;;;;;;5072376;28;19925;-63
2022/08/16 08:21:20;;;;;;;;;;;30.50;72.10;;;;;;5073913;28;19925;-64
2022/08/16 08:23:46;;;;;;;;;;;30.60;72.40;;;;;;5073593;28;19974;-63
2022/08/16 08:26:11;;;;;;;;;;;30.70;72.00;;;;;;5073007;28;19986;-61
2022/08/16 08:28:37;;;;;;;;;;;30.50;72.10;;;;;;5073498;28;19920;-62
2022/08/16 08:31:03;;;;;;;;;;;30.90;72.20;;;;;;5072251;28;19924;-66
2022/08/16 08:33:30;;;;;;;;;;;30.50;72.20;;;;;;5079910;28;19924;-63
2022/08/16 08:35:56;;;;;;;;;;;30.70;72.60;;;;;;5079575;28;19947;-61
2022/08/16 08:38:22;;;;;;;;;;;30.90;72.70;;;;;;5079226;28;19940;-61
2022/08/16 08:40:47;;;;;;;;;;;30.60;71.80;;;;;;5078785;28;19920;-64
2022/08/16 08:43:13;;;;;;;;;;;30.70;72.30;;;;;;5078966;28;19982;-60
2022/08/16 08:45:39;;;;;;;;;;;30.80;71.80;;;;;;5080392;28;20024;-60
2022/08/16 08:48:05;;;;;;;;;;;30.90;72.60;;;;;;5080458;28;19971;-61
2022/08/16 08:50:31;;;;;;;;;;;30.70;71.90;;;;;;5059760;28;19972;-61
2022/08/16 08:52:59;;;;;;;;;;;30.90;71.70;;;;;;5064830;28;20356;-60
2022/08/16 08:55:26;;;;;;;;;;;30.80;71.60;;;;;;5080744;28;20297;-61
2022/08/16 08:57:52;;;;;;;;;;;30.80;71.50;;;;;;5079837;28;19924;-60
2022/08/16 09:00:19;;;;;;;;;;;30.70;71.70;;;;;;5060261;28;19931;-61
2022/08/16 09:02:45;;;;;;;;;;;32.50;73.50;;;;;;5077475;28;19939;-62
2022/08/16 09:05:13;;;;;;;;;;;30.60;71.40;;;;;;5080646;28;19924;-62
2022/08/16 09:07:39;;;;;;;;;;;31.00;71.80;;;;;;5079966;28;19931;-62
2022/08/16 09:10:05;;;;;;;;;;;30.70;71.20;;;;;;5079947;28;19924;-60
2022/08/16 09:12:31;;;;;;;;;;;30.80;71.40;;;;;;5069742;28;19925;-61
2022/08/16 09:14:57;;;;;;;;;;;30.90;71.40;;;;;;5079854;28;19993;-60
2022/08/16 09:17:23;;;;;;;;;;;30.90;71.30;;;;;;5079643;28;19924;-60
2022/08/16 09:19:50;;;;;;;;;;;30.70;71.00;;;;;;5078595;28;20394;-60
2022/08/16 09:22:16;;;;;;;;;;;30.60;70.40;;;;;;5060875;28;19924;-60
2022/08/16 09:24:41;;;;;;;;;;;30.70;70.70;;;;;;5079761;28;19934;-61
2022/08/16 09:27:07;;;;;;;;;;;30.70;70.50;;;;;;5079660;28;19924;-60
2022/08/16 09:29:32;;;;;;;;;;;30.70;70.30;;;;;;5079583;28;19920;-60
2022/08/16 09:31:58;;;;;;;;;;;30.70;69.70;;;;;;5078726;28;19932;-60
2022/08/16 09:34:24;;;;;;;;;;;30.90;69.90;;;;;;5080566;28;19924;-61
2022/08/16 09:36:49;;;;;;;;;;;30.90;70.00;;;;;;5079457;28;20007;-60
2022/08/16 09:39:16;;;;;;;;;;;30.90;70.00;;;;;;5079989;28;20396;-60
2022/08/16 09:41:43;;;;;;;;;;;30.70;69.70;;;;;;5079672;28;19924;-61
2022/08/16 09:44:08;;;;;;;;;;;30.70;69.70;;;;;;5077212;28;20024;-62
2022/08/16 09:46:34;;;;;;;;;;;31.00;69.20;;;;;;5076032;28;20389;-62
2022/08/16 09:49:00;;;;;;;;;;;30.70;69.30;;;;;;5076329;28;19924;-62
2022/08/16 09:51:25;;;;;;;;;;;30.70;68.90;;;;;;5075614;28;19986;-60
2022/08/16 09:53:52;;;;;;;;;;;31.00;69.20;;;;;;5075754;28;19928;-60
2022/08/16 09:56:21;;;;;;;;;;;30.80;69.10;;;;;;5074823;28;19932;-63
2022/08/16 09:58:47;;;;;;;;;;;31.00;69.60;;;;;;5076175;28;20282;-62
2022/08/16 10:01:13;;;;;;;;;;;31.10;69.20;;;;;;5075859;28;19925;-60
2022/08/16 10:03:39;;;;;;;;;;;31.10;68.90;;;;;;5074459;28;20335;-61
2022/08/16 10:06:04;;;;;;;;;;;31.10;69.00;;;;;;5075418;28;19928;-60
2022/08/16 10:08:30;;;;;;;;;;;31.10;68.80;;;;;;5074523;28;20409;-62
2022/08/16 10:13:42;;;;;;;;;;;31.10;68.10;;;;;;5075956;28;19924;-59
2022/08/16 10:16:12;;;;;;;;;;;31.00;68.60;;;;;;5073932;28;19986;-61
2022/08/16 10:18:39;;;;;;;;;;;31.20;68.90;;;;;;5075762;28;19925;-63
2022/08/16 10:21:05;;;;;;;;;;;31.10;68.90;;;;;;5074862;28;20404;-60
2022/08/16 10:23:30;;;;;;;;;;;30.80;68.00;;;;;;5075718;28;20421;-60
2022/08/16 10:25:56;;;;;;;;;;;31.00;67.90;;;;;;5075759;28;20023;-60
2022/08/16 10:28:22;;;;;;;;;;;31.20;67.80;;;;;;5075511;28;19972;-60
2022/08/16 10:30:48;;;;;;;;;;;31.20;67.80;;;;;;5072560;28;20386;-60
2022/08/16 10:33:13;;;;;;;;;;;31.20;67.70;;;;;;5057739;28;19924;-60
2022/08/16 10:35:40;;;;;;;;;;;30.90;67.10;;;;;;5074573;28;19928;-66
2022/08/16 10:38:05;;;;;;;;;;;31.30;68.70;;;;;;5075642;28;20309;-62
2022/08/16 10:40:31;;;;;;;;;;;31.10;67.20;;;;;;5072854;28;20018;-61
2022/08/16 10:42:58;;;;;;;;;;;31.20;67.20;;;;;;5075333;28;19929;-61
2022/08/16 10:45:24;;;;;;;;;;;30.90;67.60;;;;;;5075345;28;19931;-61
2022/08/16 10:47:50;;;;;;;;;;;30.80;67.10;;;;;;5075450;28;19924;-60
2022/08/16 10:50:16;;;;;;;;;;;31.10;67.30;;;;;;5074142;28;19932;-60
2022/08/16 10:52:41;;;;;;;;;;;31.00;67.10;;;;;;5073806;28;20411;-61
2022/08/16 10:55:10;;;;;;;;;;;31.20;67.40;;;;;;5074723;28;19932;-61
2022/08/16 10:57:36;;;;;;;;;;;31.00;66.70;;;;;;5074796;28;19929;-60
2022/08/16 11:00:06;;;;;;;;;;;31.40;67.10;;;;;;5075045;28;19933;-60
2022/08/16 11:02:32;;;;;;;;;;;31.50;67.30;;;;;;5073009;28;20298;-63
2022/08/16 11:04:58;;;;;;;;;;;31.00;66.70;;;;;;5075456;28;19924;-62
2022/08/16 11:07:24;;;;;;;;;;;31.50;66.80;;;;;;5073777;28;19947;-61
2022/08/16 11:09:50;;;;;;;;;;;31.20;66.40;;;;;;5074287;28;19925;-60
2022/08/16 11:12:15;;;;;;;;;;;31.10;65.80;;;;;;5074605;28;19920;-60
2022/08/16 11:14:41;;;;;;;;;;;31.40;66.10;;;;;;5075014;28;19933;-60
2022/08/16 11:17:09;;;;;;;;;;;30.90;65.60;;;;;;5073319;28;19928;-61
2022/08/16 11:19:35;;;;;;;;;;;31.30;65.80;;;;;;5074601;28;19971;-60
2022/08/16 11:22:00;;;;;;;;;;;31.50;66.00;;;;;;5074561;28;19935;-65
2022/08/16 11:24:27;;;;;;;;;;;31.30;65.90;;;;;;5074471;28;19970;-63
2022/08/16 11:26:52;;;;;;;;;;;31.40;65.80;;;;;;5073171;28;19977;-62
2022/08/16 11:29:18;;;;;;;;;;;31.40;65.30;;;;;;5073316;28;19929;-61
2022/08/16 11:31:45;;;;;;;;;;;31.50;65.20;;;;;;5074447;28;20377;-60
2022/08/16 11:34:12;;;;;;;;;;;31.40;65.50;;;;;;5072383;28;19928;-60
2022/08/16 11:36:38;;;;;;;;;;;31.40;65.30;;;;;;5074548;28;19921;-60
2022/08/16 11:39:03;;;;;;;;;;;31.20;64.90;;;;;;5073986;28;19931;-61
2022/08/16 11:41:32;;;;;;;;;;;31.50;64.80;;;;;;5073425;28;19967;-61
2022/08/16 11:43:58;;;;;;;;;;;31.50;65.30;;;;;;5072206;28;20378;-60
2022/08/16 11:46:24;;;;;;;;;;;31.30;65.00;;;;;;5074265;28;19932;-60
2022/08/16 11:48:50;;;;;;;;;;;31.50;65.00;;;;;;5055467;28;19924;-60
2022/08/16 11:51:16;;;;;;;;;;;31.40;64.80;;;;;;5074651;28;20416;-61
2022/08/16 11:53:41;;;;;;;;;;;31.40;64.80;;;;;;5072999;28;19932;-61
2022/08/16 11:56:07;;;;;;;;;;;31.50;64.80;;;;;;5071760;28;19970;-60
2022/08/16 11:58:33;;;;;;;;;;;31.30;64.40;;;;;;5072517;28;19950;-61
2022/08/16 12:00:59;;;;;;;;;;;31.60;64.40;;;;;;5074128;28;19964;-60
2022/08/16 12:03:30;;;;;;;;;;;31.50;64.70;;;;;;5052576;28;19925;-66
2022/08/16 12:05:56;;;;;;;;;;;31.50;63.30;;;;;;5035101;28;19931;-60
2022/08/16 12:08:22;;;;;;;;;;;31.60;64.90;;;;;;5072876;28;19932;-61
2022/08/16 12:10:48;;;;;;;;;;;31.60;64.40;;;;;;5073800;28;20301;-61
2022/08/16 12:13:13;;;;;;;;;;;31.50;64.50;;;;;;5073191;28;20270;-60
2022/08/16 12:15:39;;;;;;;;;;;31.50;64.50;;;;;;5072875;28;19932;-64
2022/08/16 12:18:05;;;;;;;;;;;31.50;64.60;;;;;;5072723;28;20394;-61
2022/08/16 12:20:31;;;;;;;;;;;31.50;64.30;;;;;;5073675;28;19971;-63
2022/08/16 12:22:57;;;;;;;;;;;31.60;64.80;;;;;;5074024;28;20289;-64
2022/08/16 12:25:23;;;;;;;;;;;31.50;64.40;;;;;;5072462;28;19924;-63
2022/08/16 12:27:49;;;;;;;;;;;31.50;64.70;;;;;;5071146;28;19924;-60
2022/08/16 12:30:17;;;;;;;;;;;31.30;64.10;;;;;;5073694;28;19925;-60
2022/08/16 12:32:43;;;;;;;;;;;31.60;64.70;;;;;;5065116;28;20378;-60
2022/08/16 12:35:10;;;;;;;;;;;31.70;64.50;;;;;;5063954;28;19929;-60
2022/08/16 12:37:36;;;;;;;;;;;31.50;64.60;;;;;;5073004;28;20775;-60
2022/08/16 12:40:02;;;;;;;;;;;31.60;64.20;;;;;;5054543;28;19924;-61
2022/08/16 12:42:28;;;;;;;;;;;31.50;64.00;;;;;;5074035;28;19924;-60
2022/08/16 12:44:54;;;;;;;;;;;31.60;64.00;;;;;;5072372;28;20400;-60
2022/08/16 12:50:06;;;;;;;;;;;31.60;63.40;;;;;;5073346;28;20259;-60
2022/08/16 12:52:32;;;;;;;;;;;31.70;64.20;;;;;;5073541;28;19928;-61
2022/08/16 12:54:57;;;;;;;;;;;31.70;64.20;;;;;;5074186;28;20376;-60
2022/08/16 12:57:24;;;;;;;;;;;31.50;64.20;;;;;;5071940;28;20393;-60
2022/08/16 12:59:50;;;;;;;;;;;31.80;64.30;;;;;;5072972;28;20381;-61
2022/08/16 13:02:18;;;;;;;;;;;31.60;64.30;;;;;;5074089;28;19924;-61
2022/08/16 13:04:43;;;;;;;;;;;31.80;64.40;;;;;;5071753;28;20468;-60
2022/08/16 13:07:09;;;;;;;;;;;31.90;64.60;;;;;;5071732;28;20007;-60
2022/08/16 13:09:41;;;;;;;;;;;31.70;63.70;;;;;;5072642;28;20018;-60
2022/08/16 13:12:17;;;;;;;;;;;31.70;64.50;;;;;;5073456;28;19924;-61
2022/08/16 13:14:43;;;;;;;;;;;31.80;64.70;;;;;;5073101;28;19924;-61
2022/08/16 13:17:11;;;;;;;;;;;31.30;64.20;;;;;;5070986;28;20073;-60
2022/08/16 13:19:36;;;;;;;;;;;31.60;64.90;;;;;;5076256;28;19931;-60
2022/08/16 13:22:02;;;;;;;;;;;31.30;64.40;;;;;;5076603;28;19925;-60
2022/08/16 13:24:28;;;;;;;;;;;31.30;64.50;;;;;;5076995;28;19925;-61
2022/08/16 13:26:53;;;;;;;;;;;31.30;64.60;;;;;;5076774;28;19924;-59
2022/08/16 13:29:19;;;;;;;;;;;31.30;64.30;;;;;;5066706;28;20004;-60
2022/08/16 13:31:44;;;;;;;;;;;31.40;64.60;;;;;;5076081;28;20370;-60
2022/08/16 13:34:10;;;;;;;;;;;31.40;64.50;;;;;;5076599;28;19924;-62
2022/08/16 13:36:36;;;;;;;;;;;31.70;64.50;;;;;;5076495;28;19982;-61
2022/08/16 13:39:02;;;;;;;;;;;31.20;64.10;;;;;;5074962;28;19981;-60
2022/08/16 13:41:28;;;;;;;;;;;31.30;63.90;;;;;;5076573;28;20007;-61
2022/08/16 13:43:53;;;;;;;;;;;31.60;63.90;;;;;;5076077;28;19987;-60
2022/08/16 13:46:19;;;;;;;;;;;31.40;63.80;;;;;;5058667;28;19925;-61
2022/08/16 13:48:45;;;;;;;;;;;31.20;63.80;;;;;;5075240;28;19924;-60
2022/08/16 13:51:15;;;;;;;;;;;31.30;64.10;;;;;;5076572;28;19928;-63
2022/08/16 13:53:40;;;;;;;;;;;31.20;62.90;;;;;;5076251;28;19924;-61
2022/08/16 13:56:06;;;;;;;;;;;31.50;64.50;;;;;;5076552;28;19947;-61
2022/08/16 13:58:32;;;;;;;;;;;31.10;64.40;;;;;;5074662;28;19947;-62
2022/08/16 14:00:58;;;;;;;;;;;31.20;64.60;;;;;;5075814;28;20033;-60
2022/08/16 14:03:24;;;;;;;;;;;31.40;65.10;;;;;;5075628;28;19924;-61
2022/08/16 14:05:51;;;;;;;;;;;31.20;64.70;;;;;;5076255;28;19924;-60
2022/08/16 14:08:17;;;;;;;;;;;31.10;64.70;;;;;;5075702;28;19951;-70
2022/08/16 14:10:43;;;;;;;;;;;31.20;64.80;;;;;;5074750;28;19974;-72
2022/08/16 14:13:08;;;;;;;;;;;31.00;64.80;;;;;;5075716;28;19932;-62
2022/08/16 14:15:34;;;;;;;;;;;31.30;65.10;;;;;;5074936;28;19976;-60